Airport ID:KTSP
Update Time (UTC):24 MAY 18 07:54
Wind Speed (Knots):3
Wind Direction (Magnetic):340
Temperature (°C):13
Dew Point (°C):8
Humidity (%):76
Altimeter (inHg):30.05
Density Altitude (Feet):
Visibility (Miles):10
Clouds (Hundreds of feet):CLR
Present Weather:NO PRECIPITATION
METAR:METAR KTSP 240750Z AUTO 00000KT 10SM CLR 12/08 A3005 RMK AO2

The data displayed is for advisory purposes only and is not to be used for flight planning or operations.

This page is not automatically refreshed. Reload the page to see current data.